createdAt,value
2023-05-12T00:00:43.405Z,97829.52
2023-05-12T00:03:12.924Z,97824.14
2023-05-12T00:05:40.794Z,97825.05
2023-05-12T00:08:08.381Z,97822.25
2023-05-12T00:10:36.382Z,97817.58
2023-05-12T00:13:05.128Z,97820.09
2023-05-12T00:15:32.808Z,97819.42
2023-05-12T00:18:00.456Z,97819.08
2023-05-12T00:20:28.223Z,97819.78
2023-05-12T00:22:55.963Z,97819.89
2023-05-12T00:25:23.722Z,97820.27
2023-05-12T00:27:51.334Z,97822.23
2023-05-12T00:30:21.585Z,97820.70
2023-05-12T00:32:49.458Z,97823.83
2023-05-12T00:35:17.769Z,97822.07
2023-05-12T00:37:45.617Z,97819.20
2023-05-12T00:40:13.564Z,97816.95
2023-05-12T00:42:41.707Z,97824.09
2023-05-12T00:45:10.444Z,97820.25
2023-05-12T00:47:38.743Z,97817.44
2023-05-12T00:50:08.068Z,97814.63
2023-05-12T00:52:36.125Z,97815.07
2023-05-12T00:55:04.999Z,97816.02
2023-05-12T00:57:33.356Z,97809.75
2023-05-12T01:00:01.301Z,97802.12
2023-05-12T01:02:30.042Z,97815.39
2023-05-12T01:04:58.021Z,97810.20
2023-05-12T01:07:27.637Z,97810.02
2023-05-12T01:09:56.085Z,97813.30
2023-05-12T01:12:25.457Z,97805.89
2023-05-12T01:14:55.714Z,97807.09
2023-05-12T01:17:31.464Z,97803.95
2023-05-12T01:20:04.073Z,97805.34
2023-05-12T01:22:33.862Z,97798.99
2023-05-12T01:25:08.356Z,97797.22
2023-05-12T01:27:39.875Z,97805.86
2023-05-12T01:30:14.111Z,97797.39
2023-05-12T01:32:42.552Z,97802.55
2023-05-12T01:35:10.720Z,97803.94
2023-05-12T01:37:40.127Z,97800.27
2023-05-12T01:40:09.373Z,97798.42
2023-05-12T01:42:40.887Z,97795.81
2023-05-12T01:45:10.177Z,97802.31
2023-05-12T01:47:38.406Z,97807.68
2023-05-12T01:50:08.736Z,97800.27
2023-05-12T01:52:36.808Z,97796.84
2023-05-12T01:55:07.677Z,97801.41
2023-05-12T01:57:37.360Z,97799.28
2023-05-12T02:00:06.566Z,97794.52
2023-05-12T02:02:36.048Z,97796.17
2023-05-12T02:05:04.691Z,97798.58
2023-05-12T02:07:32.421Z,97796.95
2023-05-12T02:09:59.921Z,97794.83
2023-05-12T02:12:28.068Z,97794.01
2023-05-12T02:14:55.937Z,97796.41
2023-05-12T02:17:24.520Z,97792.63
2023-05-12T02:19:52.530Z,97795.03
2023-05-12T02:22:20.320Z,97788.85
2023-05-12T02:24:48.088Z,97784.55
2023-05-12T02:27:17.345Z,97788.53
2023-05-12T02:29:45.263Z,97781.28
2023-05-12T02:32:13.130Z,97785.23
2023-05-12T02:34:42.398Z,97786.05
2023-05-12T02:37:10.054Z,97784.39
2023-05-12T02:39:37.776Z,97789.20
2023-05-12T02:42:06.668Z,97777.38
2023-05-12T02:44:34.187Z,97778.44
2023-05-12T02:47:01.871Z,97777.89
2023-05-12T02:49:29.821Z,97774.38
2023-05-12T02:51:57.663Z,97775.95
2023-05-12T02:54:25.355Z,97775.64
2023-05-12T02:56:53.076Z,97775.36
2023-05-12T02:59:21.003Z,97776.94
2023-05-12T03:01:48.667Z,97778.23
2023-05-12T03:04:16.439Z,97768.39
2023-05-12T03:06:44.512Z,97778.67
2023-05-12T03:09:13.007Z,97779.41
2023-05-12T03:11:41.338Z,97779.92
2023-05-12T03:14:08.944Z,97780.34
2023-05-12T03:16:37.004Z,97783.77
2023-05-12T03:19:07.793Z,97789.61
2023-05-12T03:21:35.560Z,97778.52
2023-05-12T03:24:05.268Z,97781.66
2023-05-12T03:26:32.886Z,97787.91
2023-05-12T03:29:00.534Z,97779.64
2023-05-12T03:31:28.396Z,97768.27
2023-05-12T03:33:56.265Z,97785.55
2023-05-12T03:36:24.093Z,97792.12
2023-05-12T03:38:51.552Z,97792.45
2023-05-12T03:41:19.250Z,97787.78
2023-05-12T03:43:46.921Z,97781.25
2023-05-12T03:46:14.747Z,97798.48
2023-05-12T03:48:42.503Z,97795.96
2023-05-12T03:51:10.683Z,97795.02
2023-05-12T03:53:40.295Z,97805.69
2023-05-12T03:56:08.484Z,97803.17
2023-05-12T03:58:36.136Z,97814.48
2023-05-12T04:01:04.008Z,97807.77
2023-05-12T04:03:31.440Z,97809.75
2023-05-12T04:06:00.879Z,97806.72
2023-05-12T04:08:29.462Z,97812.25
2023-05-12T04:10:58.988Z,97809.73
2023-05-12T04:13:28.888Z,97817.59
2023-05-12T04:15:57.929Z,97821.63
2023-05-12T04:18:28.313Z,97822.08
2023-05-12T04:20:56.201Z,97815.51
2023-05-12T04:23:23.953Z,97810.82
2023-05-12T04:25:51.704Z,97812.24
2023-05-12T04:28:19.390Z,97812.23
2023-05-12T04:30:47.816Z,97816.39
2023-05-12T04:33:17.568Z,97811.73
2023-05-12T04:35:46.349Z,97818.30
2023-05-12T04:38:14.443Z,97812.43
2023-05-12T04:40:42.181Z,97817.91
2023-05-12T04:44:00.138Z,97820.94
2023-05-12T04:45:39.456Z,97815.91
2023-05-12T04:48:07.169Z,97815.36
2023-05-12T04:50:34.788Z,97811.19
2023-05-12T04:53:02.756Z,97820.66
2023-05-12T04:55:33.618Z,97816.22
2023-05-12T04:58:03.505Z,97818.28
2023-05-12T05:00:32.276Z,97813.94
2023-05-12T05:03:00.032Z,97820.69
2023-05-12T05:05:27.749Z,97815.68
2023-05-12T05:07:55.273Z,97824.00
2023-05-12T05:10:24.835Z,97822.18
2023-05-12T05:12:52.893Z,97822.87
2023-05-12T05:15:21.413Z,97815.90
2023-05-12T05:17:49.567Z,97813.06
2023-05-12T05:20:17.978Z,97813.54
2023-05-12T05:22:45.735Z,97808.06
2023-05-12T05:25:13.706Z,97819.17
2023-05-12T05:27:41.605Z,97811.45
2023-05-12T05:30:09.705Z,97811.09
2023-05-12T05:32:39.816Z,97810.77
2023-05-12T05:35:08.404Z,97816.83
2023-05-12T05:37:39.193Z,97814.28
2023-05-12T05:40:08.832Z,97817.66
2023-05-12T05:42:36.961Z,97810.38
2023-05-12T05:45:06.034Z,97816.94
2023-05-12T05:47:33.909Z,97817.07
2023-05-12T05:50:01.587Z,97813.91
2023-05-12T05:52:31.363Z,97810.98
2023-05-12T05:55:00.996Z,97820.77
2023-05-12T05:57:28.966Z,97818.36
2023-05-12T05:59:58.526Z,97820.52
2023-05-12T06:02:27.676Z,97823.31
2023-05-12T06:04:55.910Z,97816.60
2023-05-12T06:07:25.714Z,97819.93
2023-05-12T06:09:54.555Z,97822.20
2023-05-12T06:12:22.338Z,97826.20
2023-05-12T06:14:50.671Z,97819.63
2023-05-12T06:17:18.381Z,97820.61
2023-05-12T06:19:47.444Z,97833.84
2023-05-12T06:22:15.676Z,97814.33
2023-05-12T06:24:43.837Z,97819.42
2023-05-12T06:27:11.677Z,97823.02
2023-05-12T06:29:39.534Z,97818.88
2023-05-12T06:32:07.932Z,97844.01
2023-05-12T06:34:36.572Z,97830.27
2023-05-12T06:37:04.354Z,97836.73
2023-05-12T06:39:32.106Z,97825.67
2023-05-12T06:42:00.283Z,97818.39
2023-05-12T06:44:30.553Z,97833.00
2023-05-12T06:46:58.721Z,97826.96
2023-05-12T06:49:28.787Z,97840.30
2023-05-12T06:52:07.707Z,97827.24
2023-05-12T06:54:35.213Z,97843.65
2023-05-12T06:57:02.931Z,97834.46
2023-05-12T06:59:30.688Z,97845.31
2023-05-12T07:01:58.589Z,97840.50
2023-05-12T07:04:26.566Z,97844.00
2023-05-12T07:06:54.183Z,97840.08
2023-05-12T07:09:21.910Z,97845.49
2023-05-12T07:11:50.589Z,97845.66
2023-05-12T07:14:18.040Z,97847.63
2023-05-12T07:16:46.497Z,97838.98
2023-05-12T07:19:14.500Z,97842.00
2023-05-12T07:21:42.183Z,97861.94
2023-05-12T07:24:11.075Z,97845.56
2023-05-12T07:26:38.889Z,97840.98
2023-05-12T07:29:07.003Z,97853.19
2023-05-12T07:31:35.404Z,97853.19
2023-05-12T07:34:03.865Z,97851.39
2023-05-12T07:36:32.151Z,97845.56
2023-05-12T07:38:59.685Z,97858.20
2023-05-12T07:41:27.349Z,97860.61
2023-05-12T07:43:55.068Z,97855.30
2023-05-12T07:46:23.146Z,97857.23
2023-05-12T07:48:51.041Z,97852.16
2023-05-12T07:51:18.804Z,97841.77
2023-05-12T07:53:46.623Z,97838.88
2023-05-12T07:56:14.471Z,97838.09
2023-05-12T07:58:42.072Z,97843.37
2023-05-12T08:01:10.207Z,97848.16
2023-05-12T08:03:38.042Z,97834.20
2023-05-12T08:06:06.830Z,97870.65
2023-05-12T08:08:36.090Z,97855.75
2023-05-12T08:11:04.055Z,97840.50
2023-05-12T08:13:32.040Z,97842.19
2023-05-12T08:15:59.572Z,97841.95
2023-05-12T08:18:29.557Z,97841.05
2023-05-12T08:20:58.026Z,97838.00
2023-05-12T08:23:26.227Z,97842.95
2023-05-12T08:25:55.993Z,97848.94
2023-05-12T08:28:23.733Z,97851.78
2023-05-12T08:30:54.303Z,97851.87
2023-05-12T08:33:22.979Z,97857.75
2023-05-12T08:35:51.400Z,97847.27
2023-05-12T08:38:21.511Z,97851.80
2023-05-12T08:41:06.828Z,97882.69
2023-05-12T08:43:51.734Z,97857.30
2023-05-12T08:46:22.080Z,97862.95
2023-05-12T08:48:52.065Z,97863.83
2023-05-12T08:51:20.857Z,97861.92
2023-05-12T08:53:50.195Z,97868.15
2023-05-12T08:58:52.028Z,97863.94
2023-05-12T09:01:20.768Z,97863.94
2023-05-12T09:03:48.742Z,97870.37
2023-05-12T09:06:17.610Z,97865.30
2023-05-12T09:08:45.494Z,97874.25
2023-05-12T09:11:17.406Z,97878.20
2023-05-12T09:14:04.454Z,97892.64
2023-05-12T09:16:43.239Z,97889.04
2023-05-12T09:19:11.392Z,97876.03
2023-05-12T09:21:39.775Z,97870.94
2023-05-12T09:24:08.466Z,97879.84
2023-05-12T09:26:55.313Z,97878.02
2023-05-12T09:29:30.883Z,97879.63
2023-05-12T09:31:54.948Z,97880.98
2023-05-12T09:34:37.701Z,97880.98
2023-05-12T09:37:07.629Z,97868.69
2023-05-12T09:39:36.053Z,97875.82
2023-05-12T09:42:04.530Z,97877.28
2023-05-12T09:44:32.846Z,97889.94
2023-05-12T09:47:07.893Z,97902.91
2023-05-12T09:49:35.874Z,97881.70
2023-05-12T09:52:04.803Z,97880.98
2023-05-12T09:54:33.883Z,97898.63
2023-05-12T09:57:06.427Z,97880.70
2023-05-12T09:59:37.865Z,97882.37
2023-05-12T10:02:08.742Z,97872.69
2023-05-12T10:04:50.264Z,97868.05
2023-05-12T10:07:22.312Z,97878.20
2023-05-12T10:09:50.498Z,97869.73
2023-05-12T10:12:18.632Z,97868.23
2023-05-12T10:14:49.921Z,97871.61
2023-05-12T10:17:20.170Z,97867.66
2023-05-12T10:19:49.774Z,97875.56
2023-05-12T10:22:19.598Z,97876.60
2023-05-12T10:24:48.950Z,97874.47
2023-05-12T10:27:18.227Z,97861.39
2023-05-12T10:29:48.029Z,97878.64
2023-05-12T10:32:17.515Z,97871.62
2023-05-12T10:34:45.221Z,97862.34
2023-05-12T10:37:13.026Z,97866.07
2023-05-12T10:39:51.561Z,97863.09
2023-05-12T10:42:25.340Z,97860.91
2023-05-12T10:44:55.756Z,97866.37
2023-05-12T10:47:27.223Z,97862.53
2023-05-12T10:49:58.340Z,97862.17
2023-05-12T10:52:27.582Z,97859.12
2023-05-12T10:55:04.549Z,97854.39
2023-05-12T10:57:33.573Z,97850.76
2023-05-12T11:00:04.962Z,97855.06
2023-05-12T11:02:35.969Z,97859.91
2023-05-12T11:05:13.707Z,97853.14
2023-05-12T11:07:49.992Z,97849.17
2023-05-12T11:10:19.640Z,97848.91
2023-05-12T11:12:47.811Z,97848.59
2023-05-12T11:15:17.809Z,97857.61
2023-05-12T11:17:46.482Z,97854.11
2023-05-12T11:20:24.948Z,97857.38
2023-05-12T11:22:53.730Z,97865.63
2023-05-12T11:25:21.734Z,97864.39
2023-05-12T11:27:50.276Z,97860.34
2023-05-12T11:30:19.279Z,97864.88
2023-05-12T11:32:47.394Z,97871.81
2023-05-12T11:35:17.814Z,97874.77
2023-05-12T11:37:46.472Z,97879.46
2023-05-12T11:40:22.704Z,97887.97
2023-05-12T11:42:51.803Z,97906.41
2023-05-12T11:45:29.054Z,97879.99
2023-05-12T11:48:13.414Z,97875.25
2023-05-12T11:50:46.963Z,97887.80
2023-05-12T11:53:20.384Z,97893.34
2023-05-12T11:55:53.698Z,97895.45
2023-05-12T11:58:35.660Z,97899.39
2023-05-12T12:01:15.573Z,97904.14
2023-05-12T12:03:49.030Z,97901.31
2023-05-12T12:06:18.033Z,97903.91
2023-05-12T12:08:59.612Z,97900.17
2023-05-12T12:11:31.102Z,97898.58
2023-05-12T12:14:01.979Z,97898.30
2023-05-12T12:16:33.969Z,97903.47
2023-05-12T12:19:10.105Z,97922.27
2023-05-12T12:21:39.551Z,97907.73
2023-05-12T12:24:08.625Z,97914.80
2023-05-12T12:26:45.493Z,97924.86
2023-05-12T12:29:15.256Z,97918.54
2023-05-12T12:31:43.346Z,97938.75
2023-05-12T12:34:11.297Z,97925.55
2023-05-12T12:36:41.864Z,97931.74
2023-05-12T12:39:10.048Z,97928.63
2023-05-12T12:41:37.672Z,97917.68
2023-05-12T12:44:06.510Z,97919.39
2023-05-12T12:46:34.272Z,97916.04
2023-05-12T12:49:02.233Z,97929.37
2023-05-12T12:51:44.559Z,97943.11
2023-05-12T12:54:01.567Z,97944.55
2023-05-12T12:56:29.432Z,97940.50
2023-05-12T12:58:57.391Z,97942.41
2023-05-12T13:01:24.993Z,97938.58
2023-05-12T13:03:52.782Z,97941.63
2023-05-12T13:06:20.658Z,97949.02
2023-05-12T13:08:50.108Z,97954.64
2023-05-12T13:11:18.292Z,97960.45
2023-05-12T13:13:46.116Z,97970.16
2023-05-12T13:16:15.891Z,97972.97
2023-05-12T13:18:45.353Z,97963.95
2023-05-12T13:21:19.269Z,97973.61
2023-05-12T13:23:49.440Z,97979.98
2023-05-12T13:26:19.068Z,97986.80
2023-05-12T13:28:47.856Z,97973.09
2023-05-12T13:31:15.788Z,97979.42
2023-05-12T13:33:43.840Z,97976.49
2023-05-12T13:36:12.367Z,97975.67
2023-05-12T13:38:40.425Z,97999.30
2023-05-12T13:41:10.312Z,97993.88
2023-05-12T13:43:38.596Z,97995.58
2023-05-12T13:46:07.977Z,97999.45
2023-05-12T13:48:37.102Z,97991.20
2023-05-12T13:51:10.290Z,97996.19
2023-05-12T13:53:39.161Z,98007.45
2023-05-12T13:56:09.267Z,98014.34
2023-05-12T13:58:41.795Z,98014.22
2023-05-12T14:04:28.238Z,98014.22
2023-05-12T14:06:56.134Z,98019.92
2023-05-12T14:09:26.574Z,98018.81
2023-05-12T14:11:55.772Z,98026.59
2023-05-12T14:14:32.744Z,98023.60
2023-05-12T14:17:01.424Z,98022.11
2023-05-12T14:19:30.294Z,98020.04
2023-05-12T14:22:05.894Z,98015.01
2023-05-12T14:24:32.442Z,98026.97
2023-05-12T14:27:00.780Z,98032.61
2023-05-12T14:29:36.127Z,98026.97
2023-05-12T14:32:06.286Z,98035.98
2023-05-12T14:34:34.243Z,98031.83
2023-05-12T14:37:03.292Z,98032.94
2023-05-12T14:39:31.242Z,98030.09
2023-05-12T14:41:59.554Z,98031.11
2023-05-12T14:44:28.353Z,98040.77
2023-05-12T14:46:56.230Z,98040.28
2023-05-12T14:49:25.035Z,98036.44
2023-05-12T14:51:53.072Z,98035.20
2023-05-12T14:57:04.700Z,98036.28
2023-05-12T14:59:32.605Z,98038.23
2023-05-12T15:02:04.161Z,98041.09
2023-05-12T15:04:33.049Z,98040.94
2023-05-12T15:07:01.298Z,98036.13
2023-05-12T15:09:29.862Z,98025.23
2023-05-12T15:12:04.845Z,98028.06
2023-05-12T15:14:34.088Z,98035.02
2023-05-12T15:17:05.244Z,98031.18
2023-05-12T15:19:44.438Z,98037.06
2023-05-12T15:22:15.244Z,98031.12
2023-05-12T15:24:46.204Z,98029.98
2023-05-12T15:27:27.382Z,98031.56
2023-05-12T15:29:55.188Z,98037.30
2023-05-12T15:32:23.144Z,98033.31
2023-05-12T15:34:51.507Z,98036.78
2023-05-12T15:37:19.069Z,98031.42
2023-05-12T15:39:46.942Z,98030.39
2023-05-12T15:42:22.249Z,98027.34
2023-05-12T15:44:44.498Z,98030.45
2023-05-12T15:47:12.580Z,98031.56
2023-05-12T15:49:40.390Z,98030.45
2023-05-12T15:52:10.923Z,98030.77
2023-05-12T15:54:38.595Z,98027.58
2023-05-12T15:57:08.033Z,98023.27
2023-05-12T15:59:37.085Z,98030.17
2023-05-12T16:02:04.753Z,98029.93
2023-05-12T16:04:33.508Z,98030.81
2023-05-12T16:07:01.073Z,98029.19
2023-05-12T16:09:29.134Z,98033.27
2023-05-12T16:11:57.238Z,98030.67
2023-05-12T16:14:25.041Z,98038.11
2023-05-12T16:16:53.874Z,98040.41
2023-05-12T16:19:22.318Z,98040.81
2023-05-12T16:21:50.226Z,98036.31
2023-05-12T16:24:17.645Z,98038.53
2023-05-12T16:26:45.575Z,98041.56
2023-05-12T16:29:13.238Z,98040.63
2023-05-12T16:31:40.932Z,98035.37
2023-05-12T16:34:08.504Z,98033.59
2023-05-12T16:36:36.229Z,98029.56
2023-05-12T16:39:06.824Z,98033.05
2023-05-12T16:41:37.366Z,98029.09
2023-05-12T16:44:05.202Z,98022.44
2023-05-12T16:46:33.199Z,98019.23
2023-05-12T16:49:01.150Z,98019.52
2023-05-12T16:51:32.572Z,98023.53
2023-05-12T16:54:00.299Z,98023.84
2023-05-12T16:56:28.007Z,98017.73
2023-05-12T16:58:56.082Z,98020.41
2023-05-12T17:01:24.051Z,98028.16
2023-05-12T17:03:52.077Z,98031.90
2023-05-12T17:06:20.005Z,98032.17
2023-05-12T17:08:47.653Z,98034.07
2023-05-12T17:11:15.514Z,98025.23
2023-05-12T17:13:45.087Z,98024.48
2023-05-12T17:16:12.864Z,98023.65
2023-05-12T17:21:13.536Z,98023.25
2023-05-12T17:23:41.271Z,98029.09
2023-05-12T17:26:11.103Z,98025.86
2023-05-12T17:28:40.881Z,98025.39
2023-05-12T17:31:08.870Z,98026.17
2023-05-12T17:33:39.279Z,98028.55
2023-05-12T17:36:13.506Z,98017.38
2023-05-12T17:38:44.348Z,98023.89
2023-05-12T17:41:13.182Z,98030.00
2023-05-12T17:43:45.855Z,98021.09
2023-05-12T17:46:16.122Z,98023.17
2023-05-12T17:48:46.796Z,98019.11
2023-05-12T17:51:18.417Z,98021.44
2023-05-12T17:54:08.563Z,98021.39
2023-05-12T17:56:36.782Z,98014.45
2023-05-12T17:59:06.528Z,98016.22
2023-05-12T18:01:37.937Z,98019.37
2023-05-12T18:04:07.913Z,98022.62
2023-05-12T18:06:35.926Z,98025.02
2023-05-12T18:09:04.491Z,98019.69
2023-05-12T18:11:33.860Z,98025.38
2023-05-12T18:14:05.623Z,98021.63
2023-05-12T18:16:34.975Z,98017.05
2023-05-12T18:19:03.418Z,98018.70
2023-05-12T18:21:36.786Z,98017.13
2023-05-12T18:24:08.330Z,98021.94
2023-05-12T18:26:36.720Z,98016.06
2023-05-12T18:29:10.170Z,98013.42
2023-05-12T18:31:42.154Z,98017.45
2023-05-12T18:34:11.112Z,98014.77
2023-05-12T18:36:39.616Z,98015.04
2023-05-12T18:39:09.273Z,98007.77
2023-05-12T18:41:38.678Z,98004.30
2023-05-12T18:44:13.005Z,98014.05
2023-05-12T18:46:40.815Z,98017.33
2023-05-12T18:49:10.203Z,98010.71
2023-05-12T18:55:13.976Z,98011.30
2023-05-12T18:57:49.732Z,98007.83
2023-05-12T19:00:21.719Z,98007.35
2023-05-12T19:02:52.560Z,98008.97
2023-05-12T19:05:26.275Z,98002.51
2023-05-12T19:07:55.691Z,98005.15
2023-05-12T19:10:23.704Z,98006.45
2023-05-12T19:12:52.254Z,98002.97
2023-05-12T19:15:21.032Z,98004.08
2023-05-12T19:17:52.103Z,98004.31
2023-05-12T19:20:20.197Z,98001.08
2023-05-12T19:22:50.969Z,98005.34
2023-05-12T19:25:19.262Z,98004.00
2023-05-12T19:27:47.617Z,98006.45
2023-05-12T19:30:16.677Z,98003.25
2023-05-12T19:32:45.406Z,98004.11
2023-05-12T19:35:17.814Z,98000.09
2023-05-12T19:37:45.892Z,97998.44
2023-05-12T19:40:14.200Z,97997.95
2023-05-12T19:42:42.373Z,97997.69
2023-05-12T19:45:11.840Z,97996.90
2023-05-12T19:47:40.589Z,97994.26
2023-05-12T19:50:09.697Z,97992.12
2023-05-12T19:52:38.647Z,97986.52
2023-05-12T19:55:08.342Z,97989.75
2023-05-12T19:57:38.683Z,97992.99
2023-05-12T20:00:08.207Z,97991.65
2023-05-12T20:02:42.651Z,97991.93
2023-05-12T20:05:11.054Z,97987.66
2023-05-12T20:07:39.149Z,97987.43
2023-05-12T20:10:08.570Z,97986.13
2023-05-12T20:12:36.594Z,97984.00
2023-05-12T20:15:06.260Z,97985.34
2023-05-12T20:17:34.212Z,97982.66
2023-05-12T20:20:03.642Z,97979.97
2023-05-12T20:22:33.563Z,97981.00
2023-05-12T20:25:03.028Z,97977.25
2023-05-12T20:27:32.956Z,97974.56
2023-05-12T20:30:00.747Z,97971.61
2023-05-12T20:32:28.636Z,97976.42
2023-05-12T20:34:56.410Z,97977.05
2023-05-12T20:37:24.367Z,97975.98
2023-05-12T20:39:53.718Z,97973.63
2023-05-12T20:42:21.842Z,97969.09
2023-05-12T20:44:49.773Z,97973.91
2023-05-12T20:47:17.511Z,97975.24
2023-05-12T20:49:45.205Z,97971.48
2023-05-12T20:52:14.823Z,97970.98
2023-05-12T20:54:42.377Z,97976.10
2023-05-12T20:57:10.303Z,97972.72
2023-05-12T20:59:37.964Z,97977.53
2023-05-12T21:02:06.128Z,97971.38
2023-05-12T21:04:34.002Z,97965.22
2023-05-12T21:07:02.637Z,97960.88
2023-05-12T21:09:30.684Z,97969.99
2023-05-12T21:12:00.407Z,97965.41
2023-05-12T21:14:28.259Z,97965.66
2023-05-12T21:16:56.082Z,97964.08
2023-05-12T21:19:23.640Z,97958.71
2023-05-12T21:21:51.423Z,97961.98
2023-05-12T21:24:19.047Z,97960.88
2023-05-12T21:26:47.608Z,97956.31
2023-05-12T21:29:15.351Z,97953.90
2023-05-12T21:31:43.030Z,97959.73
2023-05-12T21:34:11.669Z,97960.56
2023-05-12T21:36:39.645Z,97957.61
2023-05-12T21:39:07.428Z,97954.64
2023-05-12T21:41:37.075Z,97953.30
2023-05-12T21:44:05.963Z,97954.57
2023-05-12T21:46:34.940Z,97958.31
2023-05-12T21:49:02.679Z,97958.31
2023-05-12T21:51:31.781Z,97958.55
2023-05-12T21:54:00.138Z,97963.92
2023-05-12T21:56:28.024Z,97963.92
2023-05-12T21:58:55.686Z,97963.92
2023-05-12T22:01:24.151Z,97959.61
2023-05-12T22:03:51.807Z,97959.61
2023-05-12T22:06:20.101Z,97956.11
2023-05-12T22:08:48.064Z,97955.63
2023-05-12T22:11:18.061Z,97961.23
2023-05-12T22:13:46.083Z,97958.00
2023-05-12T22:16:14.064Z,97956.93
2023-05-12T22:18:45.065Z,97957.41
2023-05-12T22:21:13.024Z,97956.62
2023-05-12T22:23:42.713Z,97951.02
2023-05-12T22:26:11.051Z,97946.44
2023-05-12T22:28:39.126Z,97941.63
2023-05-12T22:31:07.138Z,97943.99
2023-05-12T22:33:34.757Z,97948.02
2023-05-12T22:36:02.839Z,97949.86
2023-05-12T22:38:30.591Z,97947.73
2023-05-12T22:40:58.216Z,97940.72
2023-05-12T22:43:25.857Z,97936.14
2023-05-12T22:45:57.087Z,97934.75
2023-05-12T22:48:25.088Z,97939.80
2023-05-12T22:50:55.551Z,97946.78
2023-05-12T22:53:24.330Z,97941.10
2023-05-12T22:55:52.105Z,97939.16
2023-05-12T22:58:20.036Z,97940.74
2023-05-12T23:00:47.644Z,97935.87
2023-05-12T23:03:15.335Z,97937.46
2023-05-12T23:05:43.161Z,97945.23
2023-05-12T23:08:10.930Z,97936.08
2023-05-12T23:10:39.105Z,97937.37
2023-05-12T23:13:06.908Z,97938.16
2023-05-12T23:15:34.669Z,97933.27
2023-05-12T23:18:02.384Z,97935.11
2023-05-12T23:20:29.978Z,97927.61
2023-05-12T23:22:57.723Z,97924.38
2023-05-12T23:25:25.544Z,97927.61
2023-05-12T23:27:53.272Z,97934.01
2023-05-12T23:30:21.174Z,97932.91
2023-05-12T23:32:49.962Z,97934.25
2023-05-12T23:35:17.694Z,97934.01
2023-05-12T23:37:45.263Z,97933.22
2023-05-12T23:40:12.984Z,97931.88
2023-05-12T23:42:40.911Z,97931.64
2023-05-12T23:45:09.930Z,97932.98
2023-05-12T23:47:37.759Z,97933.27
2023-05-12T23:50:07.381Z,97933.27
2023-05-12T23:52:35.221Z,97927.11
2023-05-12T23:55:03.299Z,97929.55
2023-05-12T23:57:30.905Z,97932.52
2023-05-12T23:59:58.542Z,97924.47
